Main page
METAR-TAF:

METAR-TAF

Airports :

Guaraní International Airport

Ciudad Del Este, Paraguay

latitude: 25-27-20S, longitude: 054-50-37W, elevation: 257 m

Current weather observation

The report was made 29 minutes ago, at 15:00 UTC
Wind 3 kt from the Southeast
Temperature 21°C
Humidity 83%
Pressure 1019 hPa
Visibility 10 km or more
Broken clouds at a height of 1500 ft

METAR: SGES 011500Z 14003KT 9999 BKN015 21/18 Q1019

Time: 11:29 (15:29 UTC)

Forecast

The report was made 4 hours and 44 minutes ago, at 10:45 UTC
Forecast valid from 01 at 12 UTC to 02 at 12 UTC
Wind 6 kt from the South
Visibility: 5000 m
Broken clouds at a height of 1000 ft
mist
Becoming
from 01 at 14 UTC to 01 at 17 UTC
Wind 8 kt from the Southeast
Visibility 10 km or more
Broken clouds at a height of 2000 ft
Becoming
from 01 at 19 UTC to 01 at 23 UTC
Visibility 10 km or more
Scattered clouds at a height of 3300 ft

TAF: SGES 011045Z 0112/0212 18006KT 5000 BR BKN010 TX25/0119Z TN14/0210Z BECMG 0114/0117 14008KT 9999 BKN020 BECMG 0119/0123 9999 SCT033

Weather observations and forecasts of more than 4000 airports (METAR and TAF reports).

The available stations are represented by yellow and red dots on the map.

Hover mouse over dot to see the name of the station.

Then click to see weather observations and forecasts.

To change the map : click on the green buttons with a black cross to zoom in, on the green button with a dash to zoom out, or on the green arrows for adjacent maps.


METAR-TAF: